createdAt,value
2022-12-17T00:00:50.319Z,-2.01
2022-12-17T00:03:35.920Z,-2.02
2022-12-17T00:06:21.204Z,-2.07
2022-12-17T00:09:06.380Z,-2.11
2022-12-17T00:11:51.504Z,-2.28
2022-12-17T00:14:41.518Z,-2.37
2022-12-17T00:17:26.549Z,-2.33
2022-12-17T00:20:11.304Z,-2.30
2022-12-17T00:22:55.974Z,-2.37
2022-12-17T00:25:42.660Z,-2.40
2022-12-17T00:28:31.000Z,-2.54
2022-12-17T00:31:16.091Z,-2.63
2022-12-17T00:34:01.096Z,-2.59
2022-12-17T00:36:45.964Z,-2.56
2022-12-17T00:39:30.908Z,-2.53
2022-12-17T00:42:15.966Z,-2.67
2022-12-17T00:45:01.002Z,-2.50
2022-12-17T00:47:46.152Z,-2.38
2022-12-17T00:50:31.271Z,-2.34
2022-12-17T00:53:16.266Z,-2.29
2022-12-17T00:56:08.834Z,-2.16
2022-12-17T00:58:54.251Z,-2.03
2022-12-17T01:01:39.479Z,-2.10
2022-12-17T01:04:24.966Z,-2.18
2022-12-17T01:07:10.000Z,-2.33
2022-12-17T01:09:55.243Z,-2.34
2022-12-17T01:12:41.077Z,-2.45
2022-12-17T01:15:26.346Z,-2.51
2022-12-17T01:18:11.367Z,-2.58
2022-12-17T01:20:56.127Z,-2.52
2022-12-17T01:23:41.496Z,-2.48
2022-12-17T01:26:34.243Z,-2.50
2022-12-17T01:29:19.166Z,-2.60
2022-12-17T01:32:04.367Z,-2.56
2022-12-17T01:34:49.528Z,-2.58
2022-12-17T01:37:34.300Z,-2.86
2022-12-17T01:40:19.453Z,-2.92
2022-12-17T01:43:05.037Z,-2.90
2022-12-17T01:46:08.441Z,-2.80
2022-12-17T01:49:03.136Z,-2.92
2022-12-17T01:51:49.799Z,-2.94
2022-12-17T01:54:35.877Z,-3.05
2022-12-17T01:57:21.434Z,-3.11
2022-12-17T02:00:15.560Z,-3.16
2022-12-17T02:03:01.324Z,-3.21
2022-12-17T02:05:52.042Z,-3.27
2022-12-17T02:09:03.331Z,-3.37
2022-12-17T02:12:20.318Z,-3.26
2022-12-17T02:15:12.017Z,-3.33
2022-12-17T02:18:04.696Z,-3.41
2022-12-17T02:20:58.442Z,-3.57
2022-12-17T02:24:07.986Z,-3.53
2022-12-17T02:27:15.547Z,-3.45
2022-12-17T02:30:02.682Z,-3.38
2022-12-17T02:32:48.244Z,-3.47
2022-12-17T02:35:48.091Z,-3.56
2022-12-17T02:38:41.492Z,-3.69
2022-12-17T02:41:29.202Z,-3.60
2022-12-17T02:44:15.010Z,-3.66
2022-12-17T02:47:00.659Z,-3.64
2022-12-17T02:49:45.679Z,-3.62
2022-12-17T02:52:34.900Z,-3.60
2022-12-17T02:55:20.746Z,-3.58
2022-12-17T02:58:05.876Z,-3.54
2022-12-17T03:00:50.678Z,-3.47
2022-12-17T03:03:36.405Z,-3.36
2022-12-17T03:06:21.838Z,-3.34
2022-12-17T03:09:06.940Z,-3.31
2022-12-17T03:11:51.850Z,-3.38
2022-12-17T03:14:36.964Z,-3.54
2022-12-17T03:17:21.761Z,-3.66
2022-12-17T03:20:06.765Z,-3.62
2022-12-17T03:22:51.794Z,-3.62
2022-12-17T03:25:36.862Z,-3.59
2022-12-17T03:28:27.185Z,-3.65
2022-12-17T03:31:12.328Z,-3.61
2022-12-17T03:33:57.444Z,-3.51
2022-12-17T03:36:42.526Z,-3.48
2022-12-17T03:39:27.229Z,-3.55
2022-12-17T03:42:12.136Z,-3.69
2022-12-17T03:44:57.159Z,-3.69
2022-12-17T03:47:42.250Z,-3.70
2022-12-17T03:50:27.403Z,-3.71
2022-12-17T03:53:12.415Z,-3.69
2022-12-17T03:55:57.268Z,-3.56
2022-12-17T03:58:42.447Z,-3.58
2022-12-17T04:01:27.722Z,-3.64
2022-12-17T04:04:12.653Z,-3.75
2022-12-17T04:07:11.273Z,-3.78
2022-12-17T04:09:56.069Z,-3.89
2022-12-17T04:12:41.299Z,-3.91
2022-12-17T04:15:26.945Z,-3.90
2022-12-17T04:18:11.804Z,-3.88
2022-12-17T04:20:56.827Z,-3.96
2022-12-17T04:23:42.089Z,-3.97
2022-12-17T04:26:26.955Z,-3.85
2022-12-17T04:29:11.736Z,-3.79
2022-12-17T04:31:56.690Z,-3.81
2022-12-17T04:34:41.458Z,-3.79
2022-12-17T04:37:26.496Z,-3.81
2022-12-17T04:40:11.649Z,-3.80
2022-12-17T04:42:56.752Z,-3.86
2022-12-17T04:45:41.860Z,-3.95
2022-12-17T04:48:27.952Z,-4.02
2022-12-17T04:51:13.334Z,-4.03
2022-12-17T04:53:58.000Z,-4.09
2022-12-17T04:56:44.103Z,-4.12
2022-12-17T04:59:29.246Z,-4.09
2022-12-17T05:02:14.398Z,-4.11
2022-12-17T05:04:59.640Z,-4.18
2022-12-17T05:07:44.575Z,-4.23
2022-12-17T05:10:29.578Z,-4.13
2022-12-17T05:13:19.199Z,-4.25
2022-12-17T05:16:04.708Z,-4.22
2022-12-17T05:18:50.079Z,-4.08
2022-12-17T05:21:35.751Z,-3.95
2022-12-17T05:24:20.856Z,-3.75
2022-12-17T05:27:06.493Z,-3.67
2022-12-17T05:29:51.552Z,-3.60
2022-12-17T05:32:36.545Z,-3.66
2022-12-17T05:35:21.248Z,-3.63
2022-12-17T05:38:05.993Z,-3.60
2022-12-17T05:40:51.110Z,-3.57
2022-12-17T05:43:36.311Z,-3.53
2022-12-17T05:46:21.866Z,-3.42
2022-12-17T05:49:06.926Z,-3.47
2022-12-17T05:51:51.944Z,-3.44
2022-12-17T05:54:36.901Z,-3.31
2022-12-17T05:57:22.013Z,-3.26
2022-12-17T06:00:07.117Z,-3.17
2022-12-17T06:02:52.295Z,-3.18
2022-12-17T06:05:37.593Z,-3.26
2022-12-17T06:08:26.593Z,-3.14
2022-12-17T06:11:12.091Z,-3.19
2022-12-17T06:13:57.264Z,-3.23
2022-12-17T06:16:42.131Z,-3.31
2022-12-17T06:19:26.952Z,-3.26
2022-12-17T06:22:12.148Z,-3.33
2022-12-17T06:24:57.276Z,-3.26
2022-12-17T06:27:42.241Z,-3.04
2022-12-17T06:30:27.896Z,-3.09
2022-12-17T06:33:25.535Z,-3.14
2022-12-17T06:36:18.121Z,-3.09
2022-12-17T06:39:06.471Z,-3.22
2022-12-17T06:41:51.509Z,-3.24
2022-12-17T06:44:37.361Z,-3.29
2022-12-17T06:47:22.370Z,-3.21
2022-12-17T06:50:07.207Z,-3.17
2022-12-17T06:52:51.997Z,-3.22
2022-12-17T06:55:37.134Z,-3.25
2022-12-17T06:58:21.950Z,-3.24
2022-12-17T07:01:07.137Z,-3.18
2022-12-17T07:03:52.132Z,-3.12
2022-12-17T07:06:37.071Z,-3.13
2022-12-17T07:09:22.177Z,-3.09
2022-12-17T07:12:07.008Z,-3.09
2022-12-17T07:14:52.189Z,-3.07
2022-12-17T07:17:37.439Z,-3.10
2022-12-17T07:20:22.658Z,-3.16
2022-12-17T07:23:07.761Z,-3.08
2022-12-17T07:25:52.881Z,-3.06
2022-12-17T07:28:38.948Z,-3.24
2022-12-17T07:31:23.948Z,-3.30
2022-12-17T07:34:09.210Z,-3.26
2022-12-17T07:36:55.079Z,-3.14
2022-12-17T07:39:39.979Z,-3.15
2022-12-17T07:42:24.749Z,-3.16
2022-12-17T07:45:09.866Z,-3.04
2022-12-17T07:47:54.681Z,-3.02
2022-12-17T07:50:39.904Z,-2.94
2022-12-17T07:53:28.285Z,-2.84
2022-12-17T07:56:13.338Z,-2.71
2022-12-17T07:58:58.344Z,-2.76
2022-12-17T08:01:43.934Z,-2.64
2022-12-17T08:04:29.117Z,-2.63
2022-12-17T08:07:34.171Z,-2.44
2022-12-17T08:10:19.311Z,-2.35
2022-12-17T08:13:18.543Z,-2.27
2022-12-17T08:16:04.202Z,-2.20
2022-12-17T08:18:49.114Z,-2.31
2022-12-17T08:21:34.499Z,-2.23
2022-12-17T08:24:19.487Z,-2.30
2022-12-17T08:27:04.657Z,-2.28
2022-12-17T08:30:09.344Z,-2.37
2022-12-17T08:32:54.269Z,-2.30
2022-12-17T08:35:46.884Z,-2.29
2022-12-17T08:38:31.924Z,-2.26
2022-12-17T08:41:26.647Z,-2.32
2022-12-17T08:44:11.614Z,-2.32
2022-12-17T08:46:56.593Z,-2.31
2022-12-17T08:49:41.754Z,-2.07
2022-12-17T08:52:26.634Z,-2.09
2022-12-17T08:55:11.569Z,-1.98
2022-12-17T08:57:56.530Z,-1.79
2022-12-17T09:00:41.610Z,-1.68
2022-12-17T09:03:27.548Z,-1.72
2022-12-17T09:06:12.585Z,-1.71
2022-12-17T09:08:57.727Z,-1.64
2022-12-17T09:11:42.570Z,-1.58
2022-12-17T09:14:27.520Z,-1.59
2022-12-17T09:17:12.248Z,-1.63
2022-12-17T09:19:57.445Z,-1.38
2022-12-17T09:22:42.484Z,-1.40
2022-12-17T09:25:27.572Z,-1.35
2022-12-17T09:28:12.857Z,-1.22
2022-12-17T09:30:58.000Z,-1.33
2022-12-17T09:33:42.994Z,-1.31
2022-12-17T09:36:27.993Z,-1.24
2022-12-17T09:39:13.063Z,-1.26
2022-12-17T09:42:04.324Z,-1.13
2022-12-17T09:45:29.745Z,-1.07
2022-12-17T09:48:32.595Z,-1.16
2022-12-17T09:51:17.705Z,-1.00
2022-12-17T09:54:05.120Z,-1.11
2022-12-17T09:56:51.760Z,-1.14
2022-12-17T09:59:54.769Z,-0.97
2022-12-17T10:02:43.971Z,-0.81
2022-12-17T10:05:34.655Z,-0.81
2022-12-17T10:08:19.857Z,-0.65
2022-12-17T10:11:05.401Z,-0.53
2022-12-17T10:13:50.516Z,-0.59
2022-12-17T10:16:44.967Z,-0.36
2022-12-17T10:19:33.513Z,-0.34
2022-12-17T10:22:32.236Z,-0.42
2022-12-17T10:25:24.431Z,-0.30
2022-12-17T10:28:09.519Z,-0.38
2022-12-17T10:30:55.351Z,-0.39
2022-12-17T10:33:40.476Z,-0.41
2022-12-17T10:36:39.183Z,-0.18
2022-12-17T10:39:25.380Z,-0.22
2022-12-17T10:42:10.601Z,-0.10
2022-12-17T10:44:56.729Z,-0.02
2022-12-17T10:47:46.019Z,0.11
2022-12-17T10:50:36.082Z,0.27
2022-12-17T10:53:22.882Z,0.37
2022-12-17T10:56:16.994Z,0.27
2022-12-17T10:59:07.962Z,0.35
2022-12-17T11:01:53.667Z,0.51
2022-12-17T11:04:42.865Z,0.45
2022-12-17T11:07:33.108Z,0.48
2022-12-17T11:10:19.705Z,0.58
2022-12-17T11:13:18.453Z,0.78
2022-12-17T11:16:11.672Z,0.85
2022-12-17T11:19:09.186Z,0.83
2022-12-17T11:21:59.028Z,0.94
2022-12-17T11:24:46.566Z,1.07
2022-12-17T11:27:37.053Z,1.08
2022-12-17T11:30:31.002Z,1.23
2022-12-17T11:33:36.842Z,1.33
2022-12-17T11:36:38.524Z,1.17
2022-12-17T11:39:27.301Z,1.24
2022-12-17T11:42:16.546Z,1.09
2022-12-17T11:45:40.246Z,1.18
2022-12-17T11:48:36.202Z,1.23
2022-12-17T11:51:27.919Z,1.18
2022-12-17T11:54:22.859Z,1.20
2022-12-17T11:57:32.934Z,1.13
2022-12-17T12:00:34.297Z,1.21
2022-12-17T12:03:58.026Z,1.27
2022-12-17T12:06:57.177Z,1.29
2022-12-17T12:10:18.055Z,1.11
2022-12-17T12:13:19.933Z,1.27
2022-12-17T12:16:30.403Z,1.31
2022-12-17T12:19:43.709Z,1.32
2022-12-17T12:22:43.990Z,1.13
2022-12-17T12:25:44.363Z,1.11
2022-12-17T12:28:37.491Z,1.18
2022-12-17T12:31:35.103Z,1.10
2022-12-17T12:34:24.674Z,1.09
2022-12-17T12:37:10.029Z,1.14
2022-12-17T12:40:20.398Z,1.12
2022-12-17T12:43:15.005Z,1.09
2022-12-17T12:46:14.755Z,1.07
2022-12-17T12:49:28.190Z,1.08
2022-12-17T12:52:14.522Z,1.03
2022-12-17T12:55:05.811Z,0.92
2022-12-17T12:57:53.196Z,0.79
2022-12-17T13:00:45.959Z,0.88
2022-12-17T13:03:50.200Z,0.41
2022-12-17T13:06:41.732Z,0.51
2022-12-17T13:09:30.898Z,0.37
2022-12-17T13:12:04.959Z,0.39
2022-12-17T13:14:59.238Z,0.42
2022-12-17T13:17:30.842Z,0.36
2022-12-17T13:19:57.173Z,0.32
2022-12-17T13:22:24.500Z,0.41
2022-12-17T13:24:53.087Z,0.36
2022-12-17T13:27:30.183Z,0.39
2022-12-17T13:29:57.222Z,0.40
2022-12-17T13:32:29.205Z,0.41
2022-12-17T13:35:29.004Z,0.29
2022-12-17T13:38:14.344Z,0.32
2022-12-17T13:40:48.749Z,0.24
2022-12-17T13:43:20.770Z,0.31
2022-12-17T13:45:47.407Z,0.11
2022-12-17T13:48:21.303Z,0.14
2022-12-17T13:50:55.733Z,0.13
2022-12-17T13:53:22.179Z,0.09
2022-12-17T13:55:53.480Z,-0.06
2022-12-17T13:58:24.508Z,-0.02
2022-12-17T14:00:51.284Z,0.12
2022-12-17T14:03:37.076Z,0.23
2022-12-17T14:06:09.725Z,0.19
2022-12-17T14:08:36.751Z,0.14
2022-12-17T14:11:22.064Z,0.17
2022-12-17T14:13:58.686Z,0.11
2022-12-17T14:16:25.119Z,0.01
2022-12-17T14:18:54.238Z,0.18
2022-12-17T14:21:25.739Z,0.07
2022-12-17T14:23:52.603Z,-0.03
2022-12-17T14:26:19.030Z,-0.18
2022-12-17T14:28:50.231Z,-0.19
2022-12-17T14:31:27.127Z,-0.20
2022-12-17T14:34:08.772Z,-0.13
2022-12-17T14:36:37.854Z,-0.08
2022-12-17T14:39:27.039Z,-0.19
2022-12-17T14:42:15.234Z,-0.14
2022-12-17T14:44:53.611Z,-0.16
2022-12-17T14:47:22.452Z,-0.16
2022-12-17T14:50:10.205Z,-0.13
2022-12-17T14:52:50.718Z,-0.30
2022-12-17T14:55:55.874Z,-0.29
2022-12-17T14:58:23.919Z,-0.28
2022-12-17T15:00:53.638Z,-0.53
2022-12-17T15:03:23.061Z,-0.40
2022-12-17T15:05:56.857Z,-0.34
2022-12-17T15:08:23.435Z,-0.45
2022-12-17T15:10:50.050Z,-0.44
2022-12-17T15:13:16.475Z,-0.35
2022-12-17T15:15:43.022Z,-0.35
2022-12-17T15:18:09.573Z,-0.31
2022-12-17T15:20:36.112Z,-0.32
2022-12-17T15:23:02.605Z,-0.34
2022-12-17T15:25:29.224Z,-0.23
2022-12-17T15:27:55.701Z,-0.27
2022-12-17T15:30:22.139Z,-0.25
2022-12-17T15:32:48.619Z,-0.19
2022-12-17T15:35:15.209Z,-0.09
2022-12-17T15:37:41.670Z,-0.20
2022-12-17T15:40:10.748Z,-0.29
2022-12-17T15:42:56.824Z,-0.35
2022-12-17T15:45:25.124Z,-0.34
2022-12-17T15:47:51.522Z,-0.35
2022-12-17T15:50:17.949Z,-0.46
2022-12-17T15:52:44.383Z,-0.52
2022-12-17T15:55:14.041Z,-0.56
2022-12-17T15:57:40.522Z,-0.60
2022-12-17T16:00:07.950Z,-0.57
2022-12-17T16:02:34.652Z,-0.64
2022-12-17T16:05:01.184Z,-0.68
2022-12-17T16:07:27.564Z,-0.74
2022-12-17T16:09:53.995Z,-0.77
2022-12-17T16:12:20.448Z,-0.75
2022-12-17T16:14:46.976Z,-0.79
2022-12-17T16:17:13.418Z,-0.85
2022-12-17T16:19:39.905Z,-0.88
2022-12-17T16:22:06.747Z,-1.02
2022-12-17T16:24:33.160Z,-1.04
2022-12-17T16:27:17.485Z,-1.18
2022-12-17T16:29:44.366Z,-1.28
2022-12-17T16:32:10.763Z,-1.39
2022-12-17T16:34:37.152Z,-1.34
2022-12-17T16:37:03.637Z,-1.34
2022-12-17T16:39:30.105Z,-1.34
2022-12-17T16:41:56.888Z,-1.24
2022-12-17T16:44:23.454Z,-1.31
2022-12-17T16:46:50.057Z,-1.26
2022-12-17T16:49:19.230Z,-1.31
2022-12-17T16:51:46.933Z,-1.16
2022-12-17T16:54:15.840Z,-1.07
2022-12-17T16:56:43.039Z,-0.95
2022-12-17T16:59:10.581Z,-0.93
2022-12-17T17:01:38.361Z,-0.93
2022-12-17T17:04:06.756Z,-1.02
2022-12-17T17:06:34.253Z,-1.04
2022-12-17T17:09:04.135Z,-1.00
2022-12-17T17:11:30.558Z,-1.07
2022-12-17T17:13:57.125Z,-1.09
2022-12-17T17:16:25.240Z,-1.09
2022-12-17T17:18:53.541Z,-1.06
2022-12-17T17:21:19.886Z,-1.20
2022-12-17T17:23:47.953Z,-1.35
2022-12-17T17:26:14.864Z,-1.47
2022-12-17T17:28:42.059Z,-1.51
2022-12-17T17:31:11.959Z,-1.61
2022-12-17T17:33:42.966Z,-1.68
2022-12-17T17:36:12.313Z,-1.83
2022-12-17T17:38:40.394Z,-2.17
2022-12-17T17:41:09.635Z,-2.22
2022-12-17T17:43:36.132Z,-2.21
2022-12-17T17:46:11.471Z,-2.33
2022-12-17T17:48:38.411Z,-2.39
2022-12-17T17:51:26.084Z,-2.65
2022-12-17T17:54:10.975Z,-2.83
2022-12-17T17:56:41.726Z,-2.74
2022-12-17T17:59:11.060Z,-2.92
2022-12-17T18:01:40.451Z,-3.07
2022-12-17T18:04:10.090Z,-3.19
2022-12-17T18:06:37.593Z,-3.25
2022-12-17T18:09:04.532Z,-3.23
2022-12-17T18:11:31.615Z,-3.30
2022-12-17T18:13:58.904Z,-3.35
2022-12-17T18:16:32.612Z,-3.30
2022-12-17T18:19:00.744Z,-3.37
2022-12-17T18:21:28.661Z,-3.22
2022-12-17T18:24:01.085Z,-3.13
2022-12-17T18:26:29.947Z,-3.07
2022-12-17T18:28:58.436Z,-3.05
2022-12-17T18:31:26.413Z,-3.15
2022-12-17T18:33:58.540Z,-3.16
2022-12-17T18:36:34.164Z,-3.23
2022-12-17T18:39:03.730Z,-3.27
2022-12-17T18:41:48.934Z,-3.35
2022-12-17T18:44:16.240Z,-3.37
2022-12-17T18:46:43.116Z,-3.38
2022-12-17T18:49:11.571Z,-3.40
2022-12-17T18:51:40.372Z,-3.35
2022-12-17T18:54:08.474Z,-3.44
2022-12-17T18:56:59.848Z,-3.51
2022-12-17T18:59:28.708Z,-3.56
2022-12-17T19:01:58.604Z,-3.62
2022-12-17T19:04:25.618Z,-3.69
2022-12-17T19:06:53.609Z,-3.68
2022-12-17T19:09:34.330Z,-3.69
2022-12-17T19:12:01.344Z,-3.66
2022-12-17T19:14:27.912Z,-3.68
2022-12-17T19:16:55.651Z,-3.63
2022-12-17T19:19:23.015Z,-3.60
2022-12-17T19:21:51.871Z,-3.64
2022-12-17T19:24:19.243Z,-3.76
2022-12-17T19:26:45.884Z,-3.88
2022-12-17T19:29:13.678Z,-3.93
2022-12-17T19:31:40.566Z,-3.87
2022-12-17T19:34:12.689Z,-3.88
2022-12-17T19:36:39.887Z,-3.80
2022-12-17T19:39:08.553Z,-3.84
2022-12-17T19:41:35.153Z,-3.89
2022-12-17T19:44:04.484Z,-3.87
2022-12-17T19:46:32.351Z,-3.88
2022-12-17T19:48:58.819Z,-3.89
2022-12-17T19:51:27.897Z,-3.94
2022-12-17T19:53:55.146Z,-4.26
2022-12-17T19:56:26.358Z,-4.28
2022-12-17T19:58:55.343Z,-4.36
2022-12-17T20:01:24.838Z,-4.40
2022-12-17T20:03:52.058Z,-4.42
2022-12-17T20:06:20.571Z,-4.46
2022-12-17T20:08:47.089Z,-4.43
2022-12-17T20:11:36.120Z,-4.37
2022-12-17T20:14:20.658Z,-4.42
2022-12-17T20:16:52.748Z,-4.53
2022-12-17T20:19:21.752Z,-4.58
2022-12-17T20:21:48.715Z,-4.61
2022-12-17T20:24:16.627Z,-4.60
2022-12-17T20:26:43.814Z,-4.53
2022-12-17T20:29:10.508Z,-4.45
2022-12-17T20:31:37.068Z,-4.56
2022-12-17T20:34:04.710Z,-4.59
2022-12-17T20:36:31.194Z,-4.67
2022-12-17T20:38:57.771Z,-4.64
2022-12-17T20:41:26.612Z,-4.52
2022-12-17T20:43:53.748Z,-4.53
2022-12-17T20:46:21.597Z,-4.48
2022-12-17T20:48:48.071Z,-4.63
2022-12-17T20:51:17.346Z,-4.42
2022-12-17T20:53:44.794Z,-4.37
2022-12-17T20:56:14.336Z,-4.42
2022-12-17T20:58:41.856Z,-4.41
2022-12-17T21:01:16.811Z,-4.57
2022-12-17T21:03:43.459Z,-4.51
2022-12-17T21:06:13.069Z,-4.63
2022-12-17T21:08:44.797Z,-4.57
2022-12-17T21:11:15.591Z,-4.56
2022-12-17T21:13:42.422Z,-4.58
2022-12-17T21:16:29.037Z,-4.60
2022-12-17T21:18:56.514Z,-4.57
2022-12-17T21:21:25.785Z,-4.63
2022-12-17T21:23:52.224Z,-4.92
2022-12-17T21:26:24.348Z,-4.86
2022-12-17T21:28:52.592Z,-4.90
2022-12-17T21:31:25.422Z,-5.00
2022-12-17T21:33:55.510Z,-4.97
2022-12-17T21:36:23.409Z,-5.01
2022-12-17T21:38:51.204Z,-4.79
2022-12-17T21:41:20.118Z,-4.88
2022-12-17T21:43:46.568Z,-4.99
2022-12-17T21:46:13.875Z,-5.05
2022-12-17T21:48:42.645Z,-4.98
2022-12-17T21:51:12.552Z,-5.03
2022-12-17T21:53:42.722Z,-5.04
2022-12-17T21:56:15.122Z,-4.99
2022-12-17T21:58:42.655Z,-5.05
2022-12-17T22:01:24.971Z,-5.17
2022-12-17T22:03:53.894Z,-5.19
2022-12-17T22:06:24.473Z,-5.20
2022-12-17T22:08:56.811Z,-5.08
2022-12-17T22:11:27.687Z,-5.10
2022-12-17T22:14:08.835Z,-5.16
2022-12-17T22:16:35.940Z,-5.24
2022-12-17T22:19:03.892Z,-5.25
2022-12-17T22:21:34.143Z,-5.15
2022-12-17T22:24:00.968Z,-5.13
2022-12-17T22:26:27.870Z,-5.15
2022-12-17T22:28:54.345Z,-5.16
2022-12-17T22:31:39.757Z,-5.04
2022-12-17T22:35:23.151Z,-5.03
2022-12-17T22:39:04.779Z,-5.09
2022-12-17T22:43:52.440Z,-5.09
2022-12-17T22:44:43.457Z,-5.14
2022-12-17T22:45:32.932Z,-5.24
2022-12-17T22:47:59.452Z,-5.27
2022-12-17T22:50:28.163Z,-5.31
2022-12-17T22:52:59.245Z,-5.31
2022-12-17T22:55:25.786Z,-5.29
2022-12-17T22:57:53.850Z,-5.17
2022-12-17T23:00:26.140Z,-5.26
2022-12-17T23:02:54.480Z,-5.26
2022-12-17T23:05:25.514Z,-5.25
2022-12-17T23:07:52.191Z,-5.26
2022-12-17T23:10:19.193Z,-5.37
2022-12-17T23:12:52.311Z,-5.42
2022-12-17T23:15:27.363Z,-5.44
2022-12-17T23:17:56.365Z,-5.47
2022-12-17T23:20:23.021Z,-5.49
2022-12-17T23:22:49.724Z,-5.48
2022-12-17T23:25:16.465Z,-5.47
2022-12-17T23:27:44.086Z,-5.39
2022-12-17T23:30:12.115Z,-5.52
2022-12-17T23:32:38.744Z,-5.51
2022-12-17T23:35:05.882Z,-5.54
2022-12-17T23:37:36.676Z,-5.50
2022-12-17T23:40:08.021Z,-5.52
2022-12-17T23:42:34.419Z,-5.51
2022-12-17T23:45:00.812Z,-5.47
2022-12-17T23:47:27.255Z,-5.56
2022-12-17T23:49:53.841Z,-5.51
2022-12-17T23:52:20.340Z,-5.55
2022-12-17T23:54:46.720Z,-5.52
2022-12-17T23:57:13.200Z,-5.37
2022-12-17T23:59:39.751Z,-5.27
